Aérodrome :
LOGIN :

S'inscrire | Disclaimer

   EN    FR    IT 

 










Légende :    VFR   VFR Marginal   IFR   IFR Intensif   IFR Très Intensif
Visi : 
Plafond : 
>= 8 km
>= 3000ft
5 à 8 km
1000 à 3000 ft
1500m à 5 km
500 à 1000 ft
800 à 1500m
200 à 500 ft
< 800m
< 200 ft
Symboles :   Orages  Brouillard  Fortes neiges  Fortes précipitations  Vent > 20 kt
SIGMETs :   Divers  Orages  Givrage  Turbulence  Onde Orograph.  Cendres Volcan.







- Altitude de l'aérodrome : 325 ft
- Code IATA : BES
- Voir les cartes d'approche


LFRB - Brest

DERNIER METAR :
  • 181530Z AUTO 29006KT 260V330 3200 RA BR BKN018/// BKN024/// OVC029/// ///CB 09/06 Q1017 NOSIG

METARs EXPIRÉS :
  • 181500Z AUTO 23008KT 9999 BKN019/// BKN024/// OVC060/// ///TCU 11/07 Q1016 TEMPO 4000 SHRA
  • 181430Z AUTO 24006KT 200V260 9999 BKN016/// OVC023/// ///TCU 10/07 Q1016 TEMPO 4000 SHRA
  • 181400Z AUTO 19009KT 9999 FEW011/// SCT027/// BKN033/// ///CB 11/08 Q1016 TEMPO 4000 SHRA
  • 181330Z AUTO 18009KT 9999 SCT009/// BKN019/// BKN024/// ///TCU 11/08 Q1016 TEMPO 4000 SHRA
  • 181300Z AUTO 19007KT 9999 BKN010/// BKN014/// OVC020/// ///TCU 11/08 Q1017 TEMPO 4000 SHRA BKN015TCU

TAF TAF LFRB
Valide du 18 à 12h jusqu'au 19 à 18h UTC


181100Z 1812/1918 18008KT 9999 SCT006 BKN012 BKN030
BECMG 1812/1813 NSW SCT020TCU SCT030
PROB40
TEMPO 1813/1819 4000 SHRA BKN015TCU
BECMG 1820/1823 VRB03KT FEW020
PROB30
TEMPO 1903/1907 3000 MIFG
BECMG 1909/1912 18010KT
ATIS : +33 2 98 32 02 71
Pas de NOTAMs connus pour ce terrain.



MET'MAP, la Météo Aéronautique d'un coup d'oeil ! - Copyright ORBIFLY Décembre 2007 - Disclaimer

ORBIFLY MET'MAP TEAM :

Programmation & Développement : Alexandra Zaïnal
Conception & Développement : Baudouin d'Aumeries
Co-Programmation & Développement : Marc-Olivier Méhu
Soutien technique & logistique : Manuel Goepfert

Contact : metmap@orbifly.com




SOURCES & CREDITS :

   NOAA